createdAt,value
2019-04-07T00:01:23.103Z,14.57
2019-04-07T00:03:50.609Z,15.97
2019-04-07T00:06:18.187Z,13.77
2019-04-07T00:08:45.780Z,16.70
2019-04-07T00:11:13.923Z,15.03
2019-04-07T00:13:41.475Z,16.77
2019-04-07T00:16:09.005Z,15.90
2019-04-07T00:18:36.536Z,16.27
2019-04-07T00:21:04.212Z,17.57
2019-04-07T00:23:32.005Z,19.40
2019-04-07T00:26:00.161Z,18.47
2019-04-07T00:28:27.682Z,17.70
2019-04-07T00:30:55.252Z,20.07
2019-04-07T00:33:22.803Z,17.63
2019-04-07T00:35:50.917Z,16.73
2019-04-07T00:38:18.451Z,16.47
2019-04-07T00:40:46.049Z,19.07
2019-04-07T00:43:13.727Z,17.03
2019-04-07T00:45:41.575Z,17.57
2019-04-07T00:48:09.109Z,16.83
2019-04-07T00:50:36.567Z,17.37
2019-04-07T00:53:04.511Z,17.77
2019-04-07T00:55:32.178Z,19.27
2019-04-07T00:57:59.719Z,20.33
2019-04-07T01:00:29.101Z,17.77
2019-04-07T01:02:56.798Z,18.70
2019-04-07T01:05:34.206Z,23.63
2019-04-07T01:07:54.184Z,23.50
2019-04-07T01:10:22.628Z,24.17
2019-04-07T01:12:50.232Z,28.87
2019-04-07T01:15:17.719Z,22.60
2019-04-07T01:17:45.713Z,23.67
2019-04-07T01:20:14.020Z,23.73
2019-04-07T01:22:41.990Z,29.83
2019-04-07T01:25:09.548Z,27.13
2019-04-07T01:27:37.851Z,24.90
2019-04-07T01:30:07.106Z,24.60
2019-04-07T01:32:34.682Z,23.67
2019-04-07T01:35:02.485Z,24.60
2019-04-07T01:37:30.706Z,22.57
2019-04-07T01:39:58.285Z,25.20
2019-04-07T01:42:41.003Z,28.40
2019-04-07T01:45:26.916Z,31.70
2019-04-07T01:48:01.649Z,38.67
2019-04-07T01:50:54.757Z,34.93
2019-04-07T01:53:40.794Z,34.87
2019-04-07T01:56:31.168Z,42.97
2019-04-07T01:59:07.372Z,47.27
2019-04-07T02:01:43.864Z,48.90
2019-04-07T02:04:26.079Z,51.23
2019-04-07T02:07:13.106Z,40.83
2019-04-07T02:10:02.641Z,36.93
2019-04-07T02:12:55.661Z,34.73
2019-04-07T02:15:42.671Z,35.53
2019-04-07T02:18:16.373Z,34.07
2019-04-07T02:21:20.710Z,37.83
2019-04-07T02:24:11.392Z,31.80
2019-04-07T02:26:54.382Z,32.63
2019-04-07T02:29:40.203Z,33.20
2019-04-07T02:32:25.777Z,35.63
2019-04-07T02:35:09.433Z,36.50
2019-04-07T02:38:02.454Z,27.07
2019-04-07T02:40:52.303Z,23.70
2019-04-07T02:43:42.498Z,28.10
2019-04-07T02:46:33.287Z,26.37
2019-04-07T02:49:16.582Z,30.80
2019-04-07T02:52:03.961Z,27.17
2019-04-07T02:55:01.034Z,31.20
2019-04-07T02:57:54.141Z,25.93
2019-04-07T03:00:44.911Z,28.13
2019-04-07T03:03:21.605Z,24.63
2019-04-07T03:06:05.112Z,28.33
2019-04-07T03:08:39.516Z,25.07
2019-04-07T03:11:27.590Z,26.87
2019-04-07T03:14:00.207Z,27.77
2019-04-07T03:16:37.406Z,32.53
2019-04-07T03:19:10.106Z,30.17
2019-04-07T03:22:00.709Z,28.60
2019-04-07T03:24:34.824Z,35.33
2019-04-07T03:27:28.239Z,32.60
2019-04-07T03:30:15.353Z,29.33
2019-04-07T03:32:57.960Z,32.07
2019-04-07T03:35:44.843Z,43.80
2019-04-07T03:38:37.087Z,32.97
2019-04-07T03:41:23.696Z,41.83
2019-04-07T03:43:57.003Z,45.40
2019-04-07T03:46:44.186Z,40.07
2019-04-07T03:49:25.475Z,39.83
2019-04-07T03:52:12.526Z,34.17
2019-04-07T03:55:05.282Z,34.03
2019-04-07T03:57:41.086Z,33.70
2019-04-07T04:01:02.532Z,36.13
2019-04-07T04:03:40.822Z,28.80
2019-04-07T04:06:26.396Z,39.10
2019-04-07T04:11:55.663Z,39.87
2019-04-07T04:14:30.092Z,46.43
2019-04-07T04:16:58.004Z,48.87
2019-04-07T04:19:26.170Z,41.47
2019-04-07T04:21:54.932Z,41.53
2019-04-07T04:24:23.009Z,44.07
2019-04-07T04:26:51.901Z,38.37
2019-04-07T04:29:20.165Z,41.17
2019-04-07T04:31:47.963Z,35.27
2019-04-07T04:34:15.729Z,34.50
2019-04-07T04:36:43.478Z,33.80
2019-04-07T04:39:13.057Z,33.37
2019-04-07T04:41:42.599Z,37.87
2019-04-07T04:44:10.474Z,34.70
2019-04-07T04:46:38.776Z,28.70
2019-04-07T04:49:06.766Z,34.13
2019-04-07T04:51:37.011Z,24.63
2019-04-07T04:54:05.057Z,24.03
2019-04-07T04:56:33.653Z,22.33
2019-04-07T04:59:01.413Z,22.27
2019-04-07T05:01:29.187Z,20.70
2019-04-07T05:03:56.877Z,21.43
2019-04-07T05:06:25.348Z,21.07
2019-04-07T05:08:52.986Z,20.50
2019-04-07T05:11:21.207Z,18.60
2019-04-07T05:13:49.029Z,17.77
2019-04-07T05:16:17.509Z,19.97
2019-04-07T05:18:46.492Z,22.17
2019-04-07T05:21:14.978Z,21.87
2019-04-07T05:23:43.059Z,36.53
2019-04-07T05:29:02.743Z,29.80
2019-04-07T05:31:31.083Z,37.27
2019-04-07T05:33:58.776Z,44.80
2019-04-07T05:36:26.851Z,34.23
2019-04-07T05:38:54.854Z,17.00
2019-04-07T05:41:22.993Z,15.73
2019-04-07T05:43:51.043Z,16.43
2019-04-07T05:46:19.326Z,14.63
2019-04-07T05:48:49.393Z,20.10
2019-04-07T05:51:16.522Z,13.93
2019-04-07T05:53:46.438Z,13.20
2019-04-07T05:56:13.645Z,17.53
2019-04-07T05:58:42.708Z,18.03
2019-04-07T06:01:10.787Z,12.87
2019-04-07T06:03:41.754Z,11.77
2019-04-07T06:06:08.315Z,12.30
2019-04-07T06:08:39.227Z,11.73
2019-04-07T06:11:06.162Z,15.20
2019-04-07T06:13:34.538Z,11.67
2019-04-07T06:16:02.932Z,11.37
2019-04-07T06:18:33.864Z,12.57
2019-04-07T06:21:00.327Z,10.67
2019-04-07T06:23:29.804Z,13.23
2019-04-07T06:26:00.046Z,14.40
2019-04-07T06:28:28.170Z,14.47
2019-04-07T06:30:59.404Z,16.83
2019-04-07T06:33:26.426Z,15.00
2019-04-07T06:35:55.409Z,14.63
2019-04-07T06:38:31.260Z,15.70
2019-04-07T06:40:56.785Z,14.00
2019-04-07T06:43:22.707Z,14.83
2019-04-07T06:46:09.591Z,16.53
2019-04-07T06:48:57.297Z,15.13
2019-04-07T06:52:04.639Z,13.53
2019-04-07T06:54:56.200Z,14.23
2019-04-07T06:57:52.625Z,16.30
2019-04-07T07:00:49.297Z,13.87
2019-04-07T07:03:29.155Z,13.83
2019-04-07T07:06:17.216Z,16.37
2019-04-07T07:08:58.356Z,15.30
2019-04-07T07:11:58.778Z,15.70
2019-04-07T07:14:46.694Z,13.17
2019-04-07T07:17:42.349Z,14.23
2019-04-07T07:20:38.465Z,16.33
2019-04-07T07:23:14.065Z,14.03
2019-04-07T07:25:39.869Z,16.13
2019-04-07T07:28:11.539Z,15.77
2019-04-07T07:30:37.786Z,15.73
2019-04-07T07:41:00.102Z,17.30
2019-04-07T07:47:13.333Z,18.63
2019-04-07T07:49:42.447Z,18.47
2019-04-07T07:52:11.441Z,16.97
2019-04-07T07:54:39.930Z,17.03
2019-04-07T07:57:08.061Z,17.77
2019-04-07T07:59:39.006Z,18.23
2019-04-07T08:02:06.383Z,18.30
2019-04-07T08:04:36.638Z,17.13
2019-04-07T08:07:09.019Z,17.27
2019-04-07T08:09:39.292Z,16.67
2019-04-07T08:12:08.298Z,20.23
2019-04-07T08:14:38.186Z,19.03
2019-04-07T08:17:10.526Z,18.10
2019-04-07T08:19:51.297Z,19.07
2019-04-07T08:22:32.470Z,16.30
2019-04-07T08:25:04.081Z,16.80
2019-04-07T08:27:38.695Z,15.33
2019-04-07T08:30:13.774Z,16.27
2019-04-07T08:32:42.150Z,14.57
2019-04-07T08:35:10.407Z,14.07
2019-04-07T08:37:38.506Z,14.03
2019-04-07T08:40:08.245Z,10.43
2019-04-07T08:42:37.070Z,9.63
2019-04-07T08:45:05.691Z,10.73
2019-04-07T08:47:34.531Z,9.73
2019-04-07T08:50:02.910Z,11.67
2019-04-07T08:52:30.697Z,10.13
2019-04-07T08:54:58.641Z,9.67
2019-04-07T08:57:29.293Z,10.23
2019-04-07T08:59:56.433Z,8.37
2019-04-07T09:02:26.045Z,8.73
2019-04-07T09:04:55.773Z,9.00
2019-04-07T09:07:24.647Z,11.23
2019-04-07T09:09:53.322Z,8.03
2019-04-07T09:12:21.831Z,5.80
2019-04-07T09:14:50.227Z,7.97
2019-04-07T09:17:45.796Z,6.30
2019-04-07T09:20:23.764Z,6.60
2019-04-07T09:23:09.206Z,6.80
2019-04-07T09:26:02.711Z,5.77
2019-04-07T09:33:05.956Z,4.63
2019-04-07T09:36:33.784Z,5.40
2019-04-07T09:39:33.926Z,4.73
2019-04-07T09:42:43.584Z,4.30
2019-04-07T10:09:48.118Z,6.90
2019-04-07T10:12:37.937Z,5.30
2019-04-07T10:15:35.255Z,5.00
2019-04-07T10:18:30.510Z,4.87
2019-04-07T10:21:11.724Z,6.00
2019-04-07T10:23:48.743Z,6.50
2019-04-07T10:26:30.242Z,5.97
2019-04-07T10:29:04.396Z,6.27
2019-04-07T10:31:43.184Z,5.23
2019-04-07T10:34:33.246Z,8.23
2019-04-07T10:37:36.129Z,6.27
2019-04-07T10:40:31.052Z,5.20
2019-04-07T10:43:19.606Z,4.87
2019-04-07T10:46:11.137Z,6.93
2019-04-07T10:48:59.144Z,9.57
2019-04-07T10:51:45.942Z,6.57
2019-04-07T10:54:26.719Z,7.70
2019-04-07T10:57:01.007Z,8.17
2019-04-07T11:00:07.456Z,4.30
2019-04-07T11:02:55.504Z,5.37
2019-04-07T11:05:45.370Z,5.47
2019-04-07T11:08:34.088Z,4.83
2019-04-07T11:11:23.142Z,6.07
2019-04-07T11:14:26.832Z,5.33
2019-04-07T11:17:02.211Z,6.60
2019-04-07T11:19:44.695Z,6.57
2019-04-07T11:22:30.876Z,4.80
2019-04-07T11:25:16.512Z,3.90
2019-04-07T11:28:18.606Z,5.03
2019-04-07T11:31:21.209Z,3.63
2019-04-07T11:33:59.493Z,5.40
2019-04-07T11:36:48.620Z,4.47
2019-04-07T11:39:41.335Z,3.47
2019-04-07T11:42:24.030Z,3.43
2019-04-07T11:45:08.263Z,2.77
2019-04-07T11:47:55.525Z,3.53
2019-04-07T11:50:30.980Z,4.37
2019-04-07T11:53:17.235Z,4.33
2019-04-07T11:55:51.057Z,5.20
2019-04-07T11:58:41.858Z,4.70
2019-04-07T12:01:22.853Z,4.87
2019-04-07T12:04:14.983Z,2.93
2019-04-07T12:07:00.102Z,3.23
2019-04-07T12:09:39.637Z,4.50
2019-04-07T12:12:35.669Z,4.33
2019-04-07T12:15:30.203Z,4.63
2019-04-07T12:18:16.834Z,4.50
2019-04-07T12:20:50.793Z,5.07
2019-04-07T12:23:38.241Z,5.47
2019-04-07T12:26:28.209Z,3.83
2019-04-07T12:29:16.796Z,4.33
2019-04-07T12:31:52.197Z,4.47
2019-04-07T12:34:49.791Z,6.73
2019-04-07T12:37:42.347Z,8.83
2019-04-07T12:40:25.987Z,3.83
2019-04-07T12:43:19.143Z,3.57
2019-04-07T12:46:06.632Z,4.17
2019-04-07T12:48:56.447Z,4.30
2019-04-07T12:51:38.585Z,2.93
2019-04-07T12:54:24.228Z,3.20
2019-04-07T12:57:13.103Z,3.77
2019-04-07T13:00:00.236Z,3.23
2019-04-07T13:02:47.459Z,5.27
2019-04-07T13:05:29.752Z,4.33
2019-04-07T13:08:22.598Z,4.30
2019-04-07T13:10:56.903Z,3.77
2019-04-07T13:13:47.038Z,4.17
2019-04-07T13:16:32.462Z,5.53
2019-04-07T13:19:18.808Z,4.47
2019-04-07T13:22:01.622Z,4.43
2019-04-07T13:24:44.634Z,5.20
2019-04-07T13:27:54.159Z,5.27
2019-04-07T13:30:54.694Z,5.30
2019-04-07T13:34:00.079Z,5.23
2019-04-07T13:36:50.969Z,4.63
2019-04-07T13:39:45.218Z,6.63
2019-04-07T13:42:23.094Z,5.03
2019-04-07T13:45:14.373Z,5.70
2019-04-07T13:48:05.935Z,5.17
2019-04-07T13:50:59.606Z,4.63
2019-04-07T13:53:50.085Z,5.83
2019-04-07T13:56:36.508Z,4.87
2019-04-07T13:59:19.382Z,6.20
2019-04-07T14:02:05.415Z,4.80
2019-04-07T14:05:00.983Z,5.63
2019-04-07T14:07:43.799Z,4.87
2019-04-07T14:11:04.230Z,5.47
2019-04-07T14:14:37.205Z,5.77
2019-04-07T14:17:32.699Z,4.80
2019-04-07T14:20:40.384Z,5.80
2019-04-07T14:26:36.563Z,5.27
2019-04-07T14:29:44.927Z,4.77
2019-04-07T14:32:36.317Z,6.10
2019-04-07T14:35:21.620Z,5.00
2019-04-07T14:38:14.687Z,6.13
2019-04-07T14:41:20.626Z,4.97
2019-04-07T14:44:09.696Z,6.10
2019-04-07T14:47:08.817Z,5.40
2019-04-07T14:50:05.478Z,6.87
2019-04-07T14:53:30.814Z,4.83
2019-04-07T14:56:36.817Z,5.87
2019-04-07T14:59:28.553Z,6.00
2019-04-07T15:02:06.265Z,6.40
2019-04-07T15:04:49.198Z,5.67
2019-04-07T15:07:57.858Z,5.67
2019-04-07T15:10:34.083Z,6.47
2019-04-07T15:13:09.381Z,5.47
2019-04-07T15:15:37.550Z,5.17
2019-04-07T15:18:11.642Z,5.23
2019-04-07T15:20:43.410Z,5.90
2019-04-07T15:23:16.523Z,6.20
2019-04-07T15:25:52.884Z,6.17
2019-04-07T15:28:40.467Z,6.37
2019-04-07T15:31:09.652Z,5.27
2019-04-07T15:33:38.178Z,6.50
2019-04-07T15:36:18.708Z,7.13
2019-04-07T15:38:49.738Z,5.87
2019-04-07T15:41:23.323Z,6.13
2019-04-07T15:44:06.227Z,6.10
2019-04-07T15:46:35.460Z,5.33
2019-04-07T15:49:10.970Z,6.37
2019-04-07T15:51:57.288Z,6.70
2019-04-07T15:54:39.140Z,7.27
2019-04-07T15:57:11.262Z,8.77
2019-04-07T15:59:45.008Z,5.33
2019-04-07T16:02:14.867Z,5.50
2019-04-07T16:04:43.901Z,5.63
2019-04-07T16:07:12.199Z,5.87
2019-04-07T16:09:52.552Z,6.07
2019-04-07T16:12:26.239Z,7.53
2019-04-07T16:15:31.904Z,7.40
2019-04-07T16:18:03.412Z,6.07
2019-04-07T16:20:35.680Z,5.93
2019-04-07T17:46:25.809Z,5.40
2019-04-07T17:49:23.389Z,6.90
2019-04-07T17:52:22.664Z,8.13
2019-04-07T17:55:12.712Z,8.43
2019-04-07T17:58:17.189Z,7.83
2019-04-07T18:01:14.537Z,7.73
2019-04-07T18:04:05.003Z,6.77
2019-04-07T18:07:06.850Z,7.63
2019-04-07T18:09:53.329Z,8.90
2019-04-07T18:12:49.800Z,9.63
2019-04-07T18:15:44.478Z,11.40
2019-04-07T18:18:25.628Z,8.27
2019-04-07T18:21:15.748Z,9.50
2019-04-07T18:24:18.054Z,9.13
2019-04-07T18:27:18.312Z,7.77
2019-04-07T18:30:02.186Z,8.60
2019-04-07T18:32:51.455Z,9.27
2019-04-07T18:35:45.246Z,7.10
2019-04-07T18:38:46.961Z,10.37
2019-04-07T18:41:34.046Z,6.27
2019-04-07T18:44:12.832Z,7.90
2019-04-07T18:46:58.937Z,6.67
2019-04-07T18:49:49.517Z,7.80
2019-04-07T18:52:42.933Z,18.43
2019-04-07T18:55:38.205Z,15.40
2019-04-07T18:58:22.416Z,20.37
2019-04-07T19:01:28.514Z,13.87
2019-04-07T19:04:29.282Z,15.43
2019-04-07T19:07:35.848Z,12.97
2019-04-07T19:10:24.202Z,11.87
2019-04-07T19:13:09.436Z,34.90
2019-04-07T19:15:44.946Z,17.63
2019-04-07T19:18:29.927Z,14.03
2019-04-07T19:21:38.452Z,12.00
2019-04-07T19:24:34.389Z,9.73
2019-04-07T19:27:28.610Z,9.57
2019-04-07T19:30:14.429Z,7.67
2019-04-07T19:32:55.572Z,8.10
2019-04-07T19:35:43.367Z,7.53
2019-04-07T19:38:38.692Z,9.87
2019-04-07T19:41:35.282Z,10.17
2019-04-07T19:44:46.167Z,16.97
2019-04-07T19:47:37.184Z,14.97
2019-04-07T21:23:25.980Z,13.37
2019-04-07T21:34:08.854Z,10.77
2019-04-07T21:40:42.177Z,10.03
2019-04-07T21:44:03.347Z,9.50
2019-04-07T21:46:51.764Z,9.47
2019-04-07T21:49:51.543Z,9.73
2019-04-07T22:02:09.148Z,11.53
2019-04-07T22:04:59.514Z,9.67
2019-04-07T22:07:52.054Z,8.87
2019-04-07T22:10:21.997Z,8.97
2019-04-07T22:12:52.724Z,11.40
